Time;durP1;ratioP1;P1;durP2;ratioP2;P2;SDS_P1;SDS_P2;PMS_P1;PMS_P2;Temp;Humidity;BMP_temperature;BMP_pressure;BME280_temperature;BME280_humidity;BME280_pressure;Samples;Min_cycle;Max_cycle;Signal;HPM_P1;HPM_P2
2023/04/19 00:01:45;;;;;;;;;;;10.00;99.90;;;;;;4984088;28;19913;-77
2023/04/19 00:04:20;;;;;;;;;;;10.00;99.90;;;;;;4992589;28;19913;-76
2023/04/19 00:06:52;;;;;;;;;;;10.00;99.90;;;;;;5000859;28;20268;-76
2023/04/19 00:09:29;;;;;;;;;;;9.90;99.90;;;;;;4975324;28;19924;-76
2023/04/19 00:11:56;;;;;;;;;;;9.90;99.90;;;;;;4997134;28;19909;-76
2023/04/19 00:14:21;;;;;;;;;;;9.90;99.90;;;;;;4997899;28;19927;-76
2023/04/19 00:17:01;;;;;;;;;;;9.90;99.90;;;;;;4997013;28;20414;-76
2023/04/19 00:19:28;;;;;;;;;;;9.80;99.90;;;;;;5002140;28;19955;-76
2023/04/19 00:21:54;;;;;;;;;;;9.80;99.90;;;;;;4997852;28;19997;-76
2023/04/19 00:24:19;;;;;;;;;;;9.70;99.90;;;;;;5000068;28;19992;-77
2023/04/19 00:26:46;;;;;;;;;;;9.70;99.90;;;;;;4999983;28;19913;-77
2023/04/19 00:29:23;;;;;;;;;;;9.60;99.90;;;;;;4987519;28;19920;-76
2023/04/19 00:31:49;;;;;;;;;;;9.60;99.90;;;;;;5001454;28;19905;-76
2023/04/19 00:34:20;;;;;;;;;;;9.60;99.90;;;;;;4987243;28;19913;-77
2023/04/19 00:36:56;;;;;;;;;;;9.50;99.90;;;;;;4979658;28;19920;-76
2023/04/19 00:39:24;;;;;;;;;;;9.50;99.90;;;;;;4985672;28;19952;-76
2023/04/19 00:41:49;;;;;;;;;;;9.60;99.90;;;;;;5000639;28;19917;-76
2023/04/19 00:44:16;;;;;;;;;;;9.50;99.90;;;;;;4986189;28;19914;-76
2023/04/19 00:46:44;;;;;;;;;;;9.60;99.90;;;;;;5005371;28;19913;-76
2023/04/19 00:49:10;;;;;;;;;;;9.60;99.90;;;;;;4990667;28;19924;-76
2023/04/19 00:51:37;;;;;;;;;;;9.70;99.90;;;;;;4986951;28;19909;-76
2023/04/19 00:54:03;;;;;;;;;;;9.70;99.90;;;;;;4987225;28;19992;-76
2023/04/19 00:56:28;;;;;;;;;;;9.70;99.90;;;;;;4991174;28;19914;-76
2023/04/19 00:58:55;;;;;;;;;;;9.70;99.90;;;;;;4991355;28;19909;-76
2023/04/19 01:01:22;;;;;;;;;;;9.70;99.90;;;;;;4999533;28;20008;-76
2023/04/19 01:03:47;;;;;;;;;;;9.70;99.90;;;;;;4975679;28;19913;-76
2023/04/19 01:06:13;;;;;;;;;;;9.60;99.90;;;;;;4997238;28;19905;-76
2023/04/19 01:08:39;;;;;;;;;;;9.60;99.90;;;;;;4979245;28;19913;-77
2023/04/19 01:11:06;;;;;;;;;;;9.50;99.90;;;;;;4981937;28;20259;-76
2023/04/19 01:13:33;;;;;;;;;;;9.50;99.90;;;;;;4995908;28;19909;-76
2023/04/19 01:15:59;;;;;;;;;;;9.40;99.90;;;;;;4980560;28;19924;-75
2023/04/19 01:18:24;;;;;;;;;;;9.30;99.90;;;;;;4996708;28;19944;-76
2023/04/19 01:20:54;;;;;;;;;;;9.30;99.90;;;;;;4982757;28;19905;-76
2023/04/19 01:23:24;;;;;;;;;;;9.30;99.90;;;;;;4986560;28;19905;-76
2023/04/19 01:26:03;;;;;;;;;;;9.30;99.90;;;;;;4998673;28;20354;-77
2023/04/19 01:28:28;;;;;;;;;;;9.20;99.90;;;;;;4997511;28;19909;-76
2023/04/19 01:30:54;;;;;;;;;;;9.10;99.90;;;;;;4983609;28;20456;-76
2023/04/19 01:33:21;;;;;;;;;;;9.10;99.90;;;;;;5000183;28;19913;-77
2023/04/19 01:35:48;;;;;;;;;;;9.00;99.90;;;;;;4996041;28;20000;-77
2023/04/19 01:38:19;;;;;;;;;;;9.00;99.90;;;;;;4984364;28;19909;-77
2023/04/19 01:40:46;;;;;;;;;;;9.00;99.90;;;;;;5000604;28;19913;-76
2023/04/19 01:43:12;;;;;;;;;;;8.90;99.90;;;;;;4982494;28;19913;-79
2023/04/19 01:45:40;;;;;;;;;;;8.90;99.90;;;;;;4997400;28;20004;-78
2023/04/19 01:48:05;;;;;;;;;;;8.90;99.90;;;;;;4983134;28;19963;-76
2023/04/19 01:50:32;;;;;;;;;;;8.90;99.90;;;;;;4998933;28;19914;-77
2023/04/19 01:53:04;;;;;;;;;;;9.00;99.90;;;;;;4980076;28;19906;-77
2023/04/19 01:55:34;;;;;;;;;;;9.10;99.90;;;;;;5002070;28;19912;-76
2023/04/19 01:58:09;;;;;;;;;;;9.20;99.90;;;;;;4993703;28;19960;-78
2023/04/19 02:00:35;;;;;;;;;;;9.20;99.90;;;;;;4995785;28;19909;-77
2023/04/19 02:03:04;;;;;;;;;;;9.30;99.90;;;;;;5003127;28;19993;-76
2023/04/19 02:05:31;;;;;;;;;;;9.40;99.90;;;;;;4995669;28;20354;-76
2023/04/19 02:07:56;;;;;;;;;;;9.40;99.90;;;;;;4982347;28;19918;-76
2023/04/19 02:10:22;;;;;;;;;;;9.40;99.90;;;;;;4976659;28;19920;-78
2023/04/19 02:12:49;;;;;;;;;;;9.50;99.90;;;;;;4998201;28;19909;-76
2023/04/19 02:15:17;;;;;;;;;;;9.60;99.90;;;;;;4997914;28;19913;-77
2023/04/19 02:17:45;;;;;;;;;;;9.70;99.90;;;;;;4992350;28;19905;-76
2023/04/19 02:20:11;;;;;;;;;;;9.80;99.90;;;;;;4976864;28;19905;-76
2023/04/19 02:22:49;;;;;;;;;;;9.80;99.90;;;;;;4985566;28;19912;-76
2023/04/19 02:25:18;;;;;;;;;;;9.90;99.90;;;;;;4988168;28;20008;-76
2023/04/19 02:27:45;;;;;;;;;;;9.90;99.90;;;;;;4986091;28;20558;-76
2023/04/19 02:30:13;;;;;;;;;;;9.90;99.90;;;;;;4977188;28;19913;-76
2023/04/19 02:32:48;;;;;;;;;;;10.00;99.90;;;;;;4977764;28;19997;-75
2023/04/19 02:35:17;;;;;;;;;;;10.00;99.90;;;;;;4978455;28;19913;-77
2023/04/19 02:37:50;;;;;;;;;;;10.00;99.90;;;;;;4980546;28;19940;-77
2023/04/19 02:40:22;;;;;;;;;;;10.00;99.90;;;;;;5000198;28;20017;-77
2023/04/19 02:42:49;;;;;;;;;;;10.00;99.90;;;;;;5002340;28;19996;-77
2023/04/19 02:45:21;;;;;;;;;;;10.10;99.90;;;;;;4999965;28;20780;-77
2023/04/19 02:47:49;;;;;;;;;;;10.00;99.90;;;;;;4986345;28;19914;-77
2023/04/19 02:50:17;;;;;;;;;;;10.00;99.90;;;;;;4998007;28;19921;-76
2023/04/19 02:52:45;;;;;;;;;;;10.00;99.90;;;;;;4981064;28;19909;-77
2023/04/19 02:55:25;;;;;;;;;;;10.00;99.90;;;;;;5001993;28;19905;-77
2023/04/19 02:57:53;;;;;;;;;;;10.00;99.90;;;;;;4982041;28;19912;-77
2023/04/19 03:00:20;;;;;;;;;;;10.00;99.90;;;;;;4980700;28;19905;-76
2023/04/19 03:02:45;;;;;;;;;;;10.00;99.90;;;;;;5006617;28;20411;-76
2023/04/19 03:05:17;;;;;;;;;;;10.10;99.90;;;;;;4984683;28;19916;-76
2023/04/19 03:07:45;;;;;;;;;;;10.10;99.90;;;;;;5005918;28;19929;-77
2023/04/19 03:10:14;;;;;;;;;;;10.10;99.90;;;;;;4981191;28;19944;-76
2023/04/19 03:12:44;;;;;;;;;;;10.10;99.90;;;;;;5006559;28;19912;-77
2023/04/19 03:15:12;;;;;;;;;;;10.10;99.90;;;;;;4986606;28;20012;-76
2023/04/19 03:17:39;;;;;;;;;;;10.10;99.90;;;;;;4996573;28;20266;-77
2023/04/19 03:20:15;;;;;;;;;;;10.00;99.90;;;;;;5004518;28;20309;-76
2023/04/19 03:22:42;;;;;;;;;;;10.00;99.90;;;;;;4997973;28;19909;-76
2023/04/19 03:25:11;;;;;;;;;;;10.00;99.90;;;;;;5001470;28;19909;-77
2023/04/19 03:27:38;;;;;;;;;;;10.10;99.90;;;;;;4988597;28;20260;-77
2023/04/19 03:30:04;;;;;;;;;;;10.10;99.90;;;;;;4987908;28;19909;-76
2023/04/19 03:32:35;;;;;;;;;;;10.10;99.90;;;;;;4983643;28;19951;-76
2023/04/19 03:35:02;;;;;;;;;;;10.10;99.90;;;;;;4988307;28;19913;-76
2023/04/19 03:37:29;;;;;;;;;;;10.10;99.90;;;;;;4977389;28;19910;-76
2023/04/19 03:39:55;;;;;;;;;;;10.10;99.90;;;;;;4985584;28;19935;-76
2023/04/19 03:42:34;;;;;;;;;;;10.10;99.90;;;;;;4994280;28;19916;-77
2023/04/19 03:45:00;;;;;;;;;;;10.10;99.90;;;;;;4980750;28;20430;-77
2023/04/19 03:47:26;;;;;;;;;;;10.10;99.90;;;;;;4988196;28;20003;-76
2023/04/19 03:49:54;;;;;;;;;;;10.00;99.90;;;;;;4998360;28;19913;-77
2023/04/19 03:52:24;;;;;;;;;;;10.00;99.90;;;;;;4984291;28;19905;-77
2023/04/19 03:54:50;;;;;;;;;;;10.00;99.90;;;;;;4986698;28;19906;-77
2023/04/19 03:57:19;;;;;;;;;;;9.90;99.90;;;;;;4983553;28;21184;-77
2023/04/19 03:59:47;;;;;;;;;;;9.90;99.90;;;;;;4980045;28;19952;-77
2023/04/19 04:02:14;;;;;;;;;;;10.00;99.90;;;;;;4987822;28;19910;-77
2023/04/19 04:04:40;;;;;;;;;;;9.90;99.90;;;;;;4983002;28;19913;-77
2023/04/19 04:07:08;;;;;;;;;;;9.90;99.90;;;;;;5005524;28;19906;-76
2023/04/19 04:09:36;;;;;;;;;;;9.90;99.90;;;;;;5000970;28;19966;-76
2023/04/19 04:12:02;;;;;;;;;;;9.90;99.90;;;;;;4983728;28;19905;-77
2023/04/19 04:14:29;;;;;;;;;;;9.90;99.90;;;;;;4982890;28;20040;-77
2023/04/19 04:16:54;;;;;;;;;;;9.80;99.90;;;;;;4983831;28;19910;-77
2023/04/19 04:19:27;;;;;;;;;;;9.80;99.90;;;;;;5000660;28;19912;-77
2023/04/19 04:21:54;;;;;;;;;;;9.80;99.90;;;;;;4997906;28;19951;-77
2023/04/19 04:24:22;;;;;;;;;;;9.80;99.90;;;;;;4982519;28;19909;-77
2023/04/19 04:26:50;;;;;;;;;;;9.90;99.90;;;;;;4993657;28;19913;-78
2023/04/19 04:29:17;;;;;;;;;;;9.80;99.90;;;;;;4976354;28;20596;-76
2023/04/19 04:31:43;;;;;;;;;;;9.80;99.90;;;;;;4986326;28;19936;-77
2023/04/19 04:34:11;;;;;;;;;;;9.90;99.90;;;;;;4993396;28;20333;-77
2023/04/19 04:36:37;;;;;;;;;;;9.90;99.90;;;;;;4982535;28;19905;-76
2023/04/19 04:39:14;;;;;;;;;;;9.90;99.90;;;;;;5000176;28;19945;-78
2023/04/19 04:41:46;;;;;;;;;;;9.90;99.90;;;;;;4974665;28;19909;-76
2023/04/19 04:44:14;;;;;;;;;;;9.90;99.90;;;;;;4981182;28;19905;-76
2023/04/19 04:46:42;;;;;;;;;;;10.00;99.90;;;;;;4997000;28;19913;-77
2023/04/19 04:49:10;;;;;;;;;;;10.00;99.90;;;;;;5000305;28;20004;-76
2023/04/19 04:51:42;;;;;;;;;;;10.00;99.90;;;;;;4997064;28;19906;-76
2023/04/19 04:54:13;;;;;;;;;;;10.10;99.90;;;;;;4986002;28;19916;-76
2023/04/19 04:56:43;;;;;;;;;;;10.00;99.90;;;;;;4979284;28;19913;-77
2023/04/19 04:59:12;;;;;;;;;;;10.00;99.90;;;;;;5000235;28;19912;-79
2023/04/19 05:01:40;;;;;;;;;;;10.00;99.90;;;;;;4996794;28;19906;-77
2023/04/19 05:04:12;;;;;;;;;;;10.10;99.90;;;;;;4999985;28;19928;-77
2023/04/19 05:06:40;;;;;;;;;;;10.10;99.90;;;;;;4995817;28;19956;-77
2023/04/19 05:09:06;;;;;;;;;;;10.10;99.90;;;;;;5004295;28;19920;-78
2023/04/19 05:11:33;;;;;;;;;;;10.10;99.90;;;;;;4973608;28;19905;-78
2023/04/19 05:14:02;;;;;;;;;;;10.20;99.90;;;;;;4978316;28;19944;-78
2023/04/19 05:16:34;;;;;;;;;;;10.20;99.90;;;;;;4975666;28;20000;-77
2023/04/19 05:19:02;;;;;;;;;;;10.30;99.90;;;;;;4975075;28;19956;-77
2023/04/19 05:21:29;;;;;;;;;;;10.30;99.90;;;;;;4989603;28;19993;-77
2023/04/19 05:23:55;;;;;;;;;;;10.30;99.90;;;;;;4982332;28;19910;-77
2023/04/19 05:26:27;;;;;;;;;;;10.30;99.90;;;;;;4999392;28;19912;-77
2023/04/19 05:28:52;;;;;;;;;;;10.30;99.90;;;;;;4992311;28;19913;-77
2023/04/19 05:31:21;;;;;;;;;;;10.40;99.90;;;;;;4982173;28;19910;-77
2023/04/19 05:33:54;;;;;;;;;;;10.40;99.90;;;;;;4998918;28;19973;-76
2023/04/19 05:36:21;;;;;;;;;;;10.40;99.90;;;;;;4992356;28;19952;-77
2023/04/19 05:38:54;;;;;;;;;;;10.40;99.90;;;;;;4978010;28;19940;-77
2023/04/19 05:41:22;;;;;;;;;;;10.40;99.90;;;;;;4977835;28;19937;-77
2023/04/19 05:43:49;;;;;;;;;;;10.40;99.90;;;;;;4998927;28;19910;-77
2023/04/19 05:46:21;;;;;;;;;;;10.50;99.90;;;;;;5000162;28;20011;-77
2023/04/19 05:48:48;;;;;;;;;;;10.60;99.90;;;;;;4979012;28;21256;-77
2023/04/19 05:51:18;;;;;;;;;;;10.70;99.90;;;;;;4978348;28;19917;-77
2023/04/19 05:53:53;;;;;;;;;;;10.90;99.90;;;;;;4980858;28;20307;-77
2023/04/19 05:56:19;;;;;;;;;;;11.10;99.90;;;;;;4982729;28;20564;-77
2023/04/19 05:58:59;;;;;;;;;;;11.10;99.90;;;;;;4999265;28;19913;-77
2023/04/19 06:01:25;;;;;;;;;;;11.10;99.90;;;;;;4978910;28;19939;-77
2023/04/19 06:03:53;;;;;;;;;;;11.10;99.90;;;;;;4999501;28;19909;-77
2023/04/19 06:06:22;;;;;;;;;;;11.10;99.90;;;;;;4981898;28;19905;-77
2023/04/19 06:08:52;;;;;;;;;;;11.20;99.90;;;;;;4975037;28;19925;-77
2023/04/19 06:11:20;;;;;;;;;;;11.10;99.90;;;;;;4994560;28;19977;-77
2023/04/19 06:13:46;;;;;;;;;;;11.30;99.90;;;;;;4980873;28;20790;-78
2023/04/19 06:16:24;;;;;;;;;;;11.20;99.90;;;;;;4999491;28;19905;-77
2023/04/19 06:18:51;;;;;;;;;;;11.30;99.90;;;;;;4999796;28;19966;-78
2023/04/19 06:21:30;;;;;;;;;;;11.30;99.90;;;;;;4996513;28;19913;-77
2023/04/19 06:23:55;;;;;;;;;;;11.30;99.90;;;;;;4974611;28;19910;-77
2023/04/19 06:26:24;;;;;;;;;;;11.30;99.90;;;;;;4978274;28;20263;-77
2023/04/19 06:28:54;;;;;;;;;;;11.10;99.90;;;;;;4981761;28;19941;-77
2023/04/19 06:31:22;;;;;;;;;;;11.10;99.90;;;;;;4978087;28;20483;-77
2023/04/19 06:33:59;;;;;;;;;;;11.00;99.90;;;;;;4991471;28;19921;-76
2023/04/19 06:36:25;;;;;;;;;;;11.00;99.90;;;;;;4971101;28;19956;-77
2023/04/19 06:38:54;;;;;;;;;;;10.90;99.90;;;;;;4972416;28;19998;-77
2023/04/19 06:41:20;;;;;;;;;;;10.80;99.90;;;;;;4972752;28;20378;-77
2023/04/19 06:43:45;;;;;;;;;;;10.70;99.90;;;;;;4994375;28;19917;-77
2023/04/19 06:46:13;;;;;;;;;;;10.70;99.90;;;;;;4985969;28;19912;-77
2023/04/19 06:48:40;;;;;;;;;;;10.60;99.90;;;;;;4979871;28;19910;-77
2023/04/19 06:51:08;;;;;;;;;;;10.60;99.90;;;;;;4974383;28;20363;-77
2023/04/19 06:53:36;;;;;;;;;;;10.60;99.90;;;;;;4971480;28;19909;-77
2023/04/19 06:56:03;;;;;;;;;;;10.60;99.90;;;;;;4979016;28;19910;-77
2023/04/19 06:58:33;;;;;;;;;;;10.60;99.90;;;;;;4996704;28;19909;-77
2023/04/19 07:01:05;;;;;;;;;;;10.70;99.90;;;;;;4995614;28;19984;-78
2023/04/19 07:03:31;;;;;;;;;;;10.70;99.90;;;;;;4974346;28;19913;-77
2023/04/19 07:06:05;;;;;;;;;;;10.70;99.90;;;;;;4989648;28;19906;-77
2023/04/19 07:08:31;;;;;;;;;;;10.60;99.90;;;;;;4995548;28;20422;-77
2023/04/19 07:10:57;;;;;;;;;;;10.50;99.90;;;;;;4994959;28;19984;-77
2023/04/19 07:13:24;;;;;;;;;;;10.60;99.90;;;;;;4976521;28;19916;-77
2023/04/19 07:15:49;;;;;;;;;;;10.60;99.90;;;;;;4984007;28;19912;-77
2023/04/19 07:18:18;;;;;;;;;;;10.60;99.90;;;;;;4980665;28;19913;-77
2023/04/19 07:20:47;;;;;;;;;;;10.70;99.90;;;;;;4981018;28;19906;-77
2023/04/19 07:23:16;;;;;;;;;;;10.90;99.90;;;;;;4976490;28;19999;-77
2023/04/19 07:25:43;;;;;;;;;;;10.90;99.90;;;;;;4981005;28;19906;-77
2023/04/19 07:28:10;;;;;;;;;;;11.10;99.90;;;;;;4979957;28;19932;-78
2023/04/19 07:30:36;;;;;;;;;;;11.20;99.90;;;;;;4993196;28;19956;-77
2023/04/19 07:33:07;;;;;;;;;;;11.20;99.90;;;;;;4991349;28;19911;-77
2023/04/19 07:35:37;;;;;;;;;;;11.30;99.90;;;;;;4984291;28;19909;-77
2023/04/19 07:38:08;;;;;;;;;;;11.20;99.90;;;;;;4994428;28;19933;-77
2023/04/19 07:40:44;;;;;;;;;;;11.20;99.90;;;;;;5001183;28;19914;-78
2023/04/19 07:43:11;;;;;;;;;;;11.20;99.90;;;;;;4982244;28;19909;-77
2023/04/19 07:45:37;;;;;;;;;;;11.10;99.90;;;;;;5003597;28;19933;-78
2023/04/19 07:48:05;;;;;;;;;;;11.10;99.90;;;;;;4981132;28;20310;-77
2023/04/19 07:50:47;;;;;;;;;;;11.20;99.90;;;;;;4998073;28;19917;-77
2023/04/19 07:53:15;;;;;;;;;;;11.20;99.90;;;;;;4978601;28;19905;-77
2023/04/19 07:55:43;;;;;;;;;;;11.20;99.90;;;;;;4977919;28;20259;-77
2023/04/19 07:58:09;;;;;;;;;;;11.20;99.90;;;;;;4974801;28;19947;-77
2023/04/19 08:00:37;;;;;;;;;;;11.30;99.90;;;;;;4996342;28;20258;-77
2023/04/19 08:03:03;;;;;;;;;;;11.30;99.90;;;;;;4997292;28;19912;-77
2023/04/19 08:05:31;;;;;;;;;;;11.40;99.90;;;;;;4997595;28;19905;-77
2023/04/19 08:08:03;;;;;;;;;;;11.20;99.90;;;;;;4993129;28;19945;-77
2023/04/19 08:10:29;;;;;;;;;;;11.20;99.90;;;;;;4993638;28;20282;-77
2023/04/19 08:12:55;;;;;;;;;;;11.20;99.90;;;;;;4978227;28;19920;-77
2023/04/19 08:15:22;;;;;;;;;;;11.20;99.90;;;;;;4993203;28;19988;-77
2023/04/19 08:17:51;;;;;;;;;;;11.10;99.90;;;;;;4982963;28;20699;-77
2023/04/19 08:20:16;;;;;;;;;;;11.10;99.90;;;;;;4984902;28;19913;-77
2023/04/19 08:22:47;;;;;;;;;;;11.00;99.90;;;;;;5000033;28;19951;-77
2023/04/19 08:25:14;;;;;;;;;;;11.00;99.90;;;;;;4982500;28;19911;-77
2023/04/19 08:27:41;;;;;;;;;;;11.10;99.90;;;;;;4977195;28;19940;-77
2023/04/19 08:30:07;;;;;;;;;;;11.30;99.90;;;;;;4980477;28;19913;-78
2023/04/19 08:32:32;;;;;;;;;;;11.50;99.90;;;;;;5000513;28;20558;-77
2023/04/19 08:35:01;;;;;;;;;;;11.50;99.90;;;;;;4979865;28;19921;-77
2023/04/19 08:37:30;;;;;;;;;;;11.50;99.90;;;;;;4982976;28;19972;-77
2023/04/19 08:40:04;;;;;;;;;;;11.60;99.90;;;;;;5000781;28;20190;-77
2023/04/19 08:42:32;;;;;;;;;;;11.60;99.90;;;;;;4984537;28;19906;-77
2023/04/19 08:45:15;;;;;;;;;;;11.70;99.90;;;;;;4982283;28;19910;-78
2023/04/19 08:47:45;;;;;;;;;;;11.70;99.90;;;;;;4996310;28;19914;-77
2023/04/19 08:50:13;;;;;;;;;;;11.70;99.90;;;;;;4981588;28;19920;-77
2023/04/19 08:52:39;;;;;;;;;;;11.70;99.90;;;;;;5000268;28;19909;-77
2023/04/19 08:55:06;;;;;;;;;;;11.70;99.90;;;;;;4995386;28;19916;-77
2023/04/19 08:57:33;;;;;;;;;;;11.60;99.90;;;;;;4996186;28;20319;-78
2023/04/19 09:00:09;;;;;;;;;;;11.50;99.90;;;;;;4986540;28;19984;-77
2023/04/19 09:02:49;;;;;;;;;;;11.30;99.90;;;;;;4980488;28;20161;-78
2023/04/19 09:05:21;;;;;;;;;;;11.30;99.90;;;;;;4982184;28;19969;-77
2023/04/19 09:07:50;;;;;;;;;;;11.20;99.90;;;;;;4982854;28;19975;-77
2023/04/19 09:10:17;;;;;;;;;;;11.20;99.90;;;;;;4982194;28;20811;-77
2023/04/19 09:12:57;;;;;;;;;;;11.20;99.90;;;;;;4982338;28;20248;-76
2023/04/19 09:15:34;;;;;;;;;;;11.20;99.90;;;;;;4992729;28;19909;-76
2023/04/19 09:18:05;;;;;;;;;;;11.00;99.90;;;;;;4984222;28;19912;-76
2023/04/19 09:20:35;;;;;;;;;;;10.80;99.90;;;;;;4972622;28;19905;-76
2023/04/19 09:23:06;;;;;;;;;;;10.70;99.90;;;;;;4992136;28;19906;-76
2023/04/19 09:25:34;;;;;;;;;;;10.40;99.90;;;;;;4982066;28;19967;-76
2023/04/19 09:28:13;;;;;;;;;;;10.40;99.90;;;;;;4997574;28;19963;-77
2023/04/19 09:30:39;;;;;;;;;;;10.20;99.90;;;;;;4973130;28;19914;-76
2023/04/19 09:33:09;;;;;;;;;;;10.30;99.90;;;;;;4976269;28;19916;-78
2023/04/19 09:35:48;;;;;;;;;;;10.70;99.90;;;;;;4972417;28;19909;-77
2023/04/19 09:38:14;;;;;;;;;;;10.90;99.90;;;;;;4982754;28;20082;-77
2023/04/19 09:40:41;;;;;;;;;;;11.30;99.90;;;;;;4993977;28;19943;-77
2023/04/19 09:43:07;;;;;;;;;;;11.50;99.90;;;;;;4992541;28;19996;-77
2023/04/19 09:45:47;;;;;;;;;;;11.70;99.90;;;;;;4980901;28;19993;-78
2023/04/19 09:48:21;;;;;;;;;;;11.70;99.90;;;;;;4997062;28;19951;-77
2023/04/19 09:50:59;;;;;;;;;;;11.60;99.90;;;;;;4978486;28;19918;-77
2023/04/19 09:53:28;;;;;;;;;;;11.50;99.90;;;;;;4985341;28;20410;-77
2023/04/19 09:55:55;;;;;;;;;;;11.40;99.90;;;;;;4996868;28;19949;-77
2023/04/19 09:58:24;;;;;;;;;;;11.40;99.90;;;;;;4975057;28;19931;-77
2023/04/19 10:00:51;;;;;;;;;;;11.40;99.90;;;;;;4992716;28;19913;-76
2023/04/19 10:03:17;;;;;;;;;;;11.40;99.90;;;;;;4996185;28;20011;-77
2023/04/19 10:05:48;;;;;;;;;;;11.60;99.90;;;;;;4973297;28;19912;-77
2023/04/19 10:08:14;;;;;;;;;;;11.90;99.90;;;;;;4979262;28;19909;-77
2023/04/19 10:10:40;;;;;;;;;;;12.10;99.90;;;;;;4977481;28;20000;-77
2023/04/19 10:13:22;;;;;;;;;;;12.10;99.90;;;;;;4990152;28;19920;-77
2023/04/19 10:15:50;;;;;;;;;;;12.30;99.90;;;;;;4994784;28;19936;-77
2023/04/19 10:18:18;;;;;;;;;;;12.40;99.90;;;;;;4977207;28;19921;-77
2023/04/19 10:20:56;;;;;;;;;;;12.70;99.90;;;;;;4978962;28;20798;-77
2023/04/19 10:23:28;;;;;;;;;;;13.00;99.90;;;;;;4972364;28;19906;-77
2023/04/19 10:25:55;;;;;;;;;;;13.10;99.90;;;;;;4992763;28;19906;-77
2023/04/19 10:28:22;;;;;;;;;;;13.20;99.90;;;;;;4963351;28;20231;-77
2023/04/19 10:30:56;;;;;;;;;;;13.30;99.90;;;;;;4973430;28;19917;-77
2023/04/19 10:33:30;;;;;;;;;;;13.20;99.90;;;;;;4976366;28;19968;-81
2023/04/19 10:35:56;;;;;;;;;;;13.20;99.90;;;;;;4981521;28;19905;-78
2023/04/19 10:38:48;;;;;;;;;;;13.10;99.90;;;;;;4970898;28;19912;-77
2023/04/19 10:41:17;;;;;;;;;;;12.80;99.90;;;;;;5000850;28;20354;-77
2023/04/19 10:44:04;;;;;;;;;;;12.50;99.90;;;;;;4996537;28;19913;-77
2023/04/19 10:46:30;;;;;;;;;;;12.30;99.90;;;;;;4972831;28;19909;-77
2023/04/19 10:48:59;;;;;;;;;;;12.10;99.90;;;;;;4979380;28;19956;-77
2023/04/19 10:51:32;;;;;;;;;;;11.70;99.90;;;;;;4985934;28;20012;-77
2023/04/19 10:54:00;;;;;;;;;;;11.10;99.90;;;;;;4966596;28;20008;-78
2023/04/19 10:56:33;;;;;;;;;;;10.80;99.90;;;;;;4969481;28;19910;-76
2023/04/19 10:59:06;;;;;;;;;;;10.30;99.90;;;;;;4970020;28;19917;-77
2023/04/19 11:01:39;;;;;;;;;;;10.40;99.90;;;;;;4972610;28;19996;-77
2023/04/19 11:04:21;;;;;;;;;;;10.40;99.90;;;;;;4990732;28;19905;-77
2023/04/19 11:06:54;;;;;;;;;;;10.80;99.90;;;;;;4977108;28;19964;-77
2023/04/19 11:09:34;;;;;;;;;;;11.00;99.90;;;;;;4981840;28;19998;-77
2023/04/19 11:12:07;;;;;;;;;;;11.40;99.90;;;;;;4999385;28;20482;-77
2023/04/19 11:14:40;;;;;;;;;;;12.10;99.90;;;;;;4990232;28;20385;-77
2023/04/19 11:17:17;;;;;;;;;;;12.60;99.90;;;;;;4994790;28;19964;-77
2023/04/19 11:19:56;;;;;;;;;;;13.00;99.90;;;;;;4976456;28;19913;-77
2023/04/19 11:22:44;;;;;;;;;;;13.10;99.90;;;;;;4991899;28;19929;-77
2023/04/19 11:25:19;;;;;;;;;;;13.10;99.90;;;;;;4970648;28;19905;-77
2023/04/19 11:27:47;;;;;;;;;;;13.30;99.90;;;;;;4974393;28;19917;-77
2023/04/19 11:30:18;;;;;;;;;;;13.20;99.90;;;;;;4970326;28;19916;-77
2023/04/19 11:32:55;;;;;;;;;;;13.20;99.90;;;;;;4981952;28;21009;-77
2023/04/19 11:35:23;;;;;;;;;;;13.00;99.90;;;;;;4987965;28;20253;-77
2023/04/19 11:37:49;;;;;;;;;;;13.00;99.90;;;;;;4990614;28;19959;-78
2023/04/19 11:40:19;;;;;;;;;;;13.00;99.90;;;;;;4973951;28;19959;-78
2023/04/19 11:43:01;;;;;;;;;;;13.10;99.90;;;;;;4989839;28;20572;-78
2023/04/19 11:45:28;;;;;;;;;;;13.10;99.90;;;;;;4995650;28;19941;-77
2023/04/19 11:47:56;;;;;;;;;;;13.20;99.90;;;;;;4989248;28;19906;-77
2023/04/19 11:50:32;;;;;;;;;;;13.40;99.90;;;;;;4992011;28;19993;-77
2023/04/19 11:52:58;;;;;;;;;;;13.70;99.90;;;;;;4986568;28;19913;-77
2023/04/19 11:55:23;;;;;;;;;;;13.90;99.90;;;;;;4982691;28;19905;-77
2023/04/19 11:57:53;;;;;;;;;;;14.10;99.90;;;;;;4990953;28;19912;-77
2023/04/19 12:00:24;;;;;;;;;;;14.10;99.90;;;;;;4976382;28;19906;-78
2023/04/19 12:02:50;;;;;;;;;;;14.20;99.90;;;;;;4990199;28;19910;-77
2023/04/19 12:05:28;;;;;;;;;;;14.40;99.90;;;;;;4975656;28;20043;-78
2023/04/19 12:08:04;;;;;;;;;;;14.50;99.90;;;;;;4990204;28;19905;-78
2023/04/19 12:10:31;;;;;;;;;;;14.60;99.90;;;;;;4976733;28;19909;-78
2023/04/19 12:12:56;;;;;;;;;;;14.80;99.90;;;;;;4989472;28;20651;-77
2023/04/19 12:15:51;;;;;;;;;;;14.70;99.90;;;;;;4980253;28;19906;-78
2023/04/19 12:18:22;;;;;;;;;;;14.40;99.90;;;;;;4993327;28;19967;-77
2023/04/19 12:20:51;;;;;;;;;;;14.20;99.90;;;;;;4975466;28;19914;-78
2023/04/19 12:23:18;;;;;;;;;;;14.10;99.90;;;;;;4978136;28;21310;-77
2023/04/19 12:25:45;;;;;;;;;;;14.00;99.90;;;;;;4977342;28;19959;-77
2023/04/19 12:28:12;;;;;;;;;;;13.80;99.90;;;;;;4976653;28;19912;-72
2023/04/19 12:30:38;;;;;;;;;;;13.70;99.90;;;;;;4986621;28;19913;-72
2023/04/19 12:33:08;;;;;;;;;;;13.50;99.90;;;;;;4996588;28;19905;-75
2023/04/19 12:35:35;;;;;;;;;;;13.30;99.90;;;;;;4987887;28;19910;-73
2023/04/19 12:38:01;;;;;;;;;;;13.10;99.90;;;;;;4996254;28;19905;-74
2023/04/19 12:40:28;;;;;;;;;;;12.90;99.90;;;;;;4976557;28;19910;-74
2023/04/19 12:42:54;;;;;;;;;;;12.80;99.90;;;;;;4975882;28;20327;-74
2023/04/19 12:45:20;;;;;;;;;;;12.80;99.90;;;;;;4989144;28;19916;-74
2023/04/19 12:47:47;;;;;;;;;;;12.60;99.90;;;;;;4970348;28;19913;-74
2023/04/19 12:50:14;;;;;;;;;;;12.60;99.90;;;;;;4987859;28;20337;-74
2023/04/19 12:52:41;;;;;;;;;;;12.60;99.90;;;;;;4984624;28;19913;-74
2023/04/19 12:55:07;;;;;;;;;;;12.70;99.90;;;;;;4968466;28;19968;-74
2023/04/19 12:57:33;;;;;;;;;;;12.70;99.90;;;;;;4996623;28;19914;-75
2023/04/19 12:59:59;;;;;;;;;;;12.80;99.90;;;;;;4969809;28;19910;-74
2023/04/19 13:02:24;;;;;;;;;;;12.90;99.90;;;;;;4992471;28;19902;-74
2023/04/19 13:04:50;;;;;;;;;;;13.00;99.90;;;;;;4994774;28;19929;-74
2023/04/19 13:07:16;;;;;;;;;;;13.10;99.90;;;;;;4973587;28;19918;-75
2023/04/19 13:09:41;;;;;;;;;;;13.20;99.90;;;;;;4975522;28;19920;-74
2023/04/19 13:12:07;;;;;;;;;;;13.30;99.90;;;;;;4998763;28;19913;-74
2023/04/19 13:14:32;;;;;;;;;;;13.40;99.90;;;;;;4993674;28;19971;-74
2023/04/19 13:16:58;;;;;;;;;;;13.50;99.90;;;;;;4975761;28;19958;-74
2023/04/19 13:19:24;;;;;;;;;;;13.50;99.90;;;;;;4991959;28;19959;-74
2023/04/19 13:21:49;;;;;;;;;;;13.60;99.90;;;;;;4993837;28;19905;-74
2023/04/19 13:24:15;;;;;;;;;;;13.60;99.90;;;;;;4993527;28;19920;-74
2023/04/19 13:26:41;;;;;;;;;;;13.70;99.90;;;;;;4976370;28;19905;-74
2023/04/19 13:29:08;;;;;;;;;;;13.70;99.90;;;;;;4993523;28;19960;-74
2023/04/19 13:31:38;;;;;;;;;;;13.70;99.90;;;;;;4976963;28;19912;-74
2023/04/19 13:34:06;;;;;;;;;;;13.60;99.90;;;;;;4997557;28;19909;-74
2023/04/19 13:36:32;;;;;;;;;;;13.50;99.90;;;;;;4973617;28;19909;-74
2023/04/19 13:38:58;;;;;;;;;;;13.50;99.90;;;;;;4986095;28;19921;-74
2023/04/19 13:41:24;;;;;;;;;;;13.60;99.90;;;;;;4978510;28;19910;-74
2023/04/19 13:43:50;;;;;;;;;;;13.50;99.90;;;;;;4991984;28;19959;-74
2023/04/19 13:46:17;;;;;;;;;;;13.50;99.90;;;;;;4998920;28;19996;-74
2023/04/19 13:48:51;;;;;;;;;;;13.50;99.90;;;;;;4993659;28;20342;-74
2023/04/19 13:51:17;;;;;;;;;;;13.40;99.90;;;;;;4998664;28;19963;-74
2023/04/19 13:53:43;;;;;;;;;;;13.50;99.90;;;;;;4978252;28;19905;-74
2023/04/19 13:56:09;;;;;;;;;;;13.40;99.90;;;;;;4991990;28;19906;-74
2023/04/19 13:58:39;;;;;;;;;;;13.30;99.90;;;;;;4995496;28;19910;-74
2023/04/19 14:01:06;;;;;;;;;;;13.20;99.90;;;;;;4988144;28;19981;-74
2023/04/19 14:03:32;;;;;;;;;;;13.30;99.90;;;;;;4991002;28;19956;-74
2023/04/19 14:05:58;;;;;;;;;;;13.40;99.90;;;;;;4980532;28;19909;-75
2023/04/19 14:08:23;;;;;;;;;;;13.50;99.90;;;;;;4964723;28;19916;-74
2023/04/19 14:10:49;;;;;;;;;;;13.80;99.90;;;;;;4967286;28;20001;-74
2023/04/19 14:13:17;;;;;;;;;;;13.80;99.90;;;;;;4966628;28;20263;-74
2023/04/19 14:15:42;;;;;;;;;;;13.90;99.90;;;;;;4982240;28;20283;-74
2023/04/19 14:18:08;;;;;;;;;;;14.00;99.90;;;;;;4991642;28;19916;-74
2023/04/19 14:20:37;;;;;;;;;;;14.10;99.90;;;;;;4991347;28;19959;-74
2023/04/19 14:23:02;;;;;;;;;;;14.20;99.90;;;;;;4990914;28;19916;-74
2023/04/19 14:25:28;;;;;;;;;;;14.30;99.90;;;;;;4989726;28;19913;-74
2023/04/19 14:27:54;;;;;;;;;;;14.40;99.90;;;;;;4986262;28;19956;-74
2023/04/19 14:30:20;;;;;;;;;;;14.30;99.90;;;;;;4987889;28;20004;-73